createdAt,value
2018-06-08T00:02:12.731Z,70.46
2018-06-08T00:04:39.624Z,70.62
2018-06-08T00:07:06.524Z,70.53
2018-06-08T00:09:33.459Z,69.90
2018-06-08T00:12:00.351Z,68.73
2018-06-08T00:14:27.241Z,70.16
2018-06-08T00:16:54.141Z,70.50
2018-06-08T00:19:21.031Z,71.12
2018-06-08T00:21:47.919Z,71.53
2018-06-08T00:24:14.813Z,71.45
2018-06-08T00:26:41.707Z,71.48
2018-06-08T00:29:08.596Z,71.78
2018-06-08T00:31:35.500Z,71.28
2018-06-08T00:34:02.387Z,70.29
2018-06-08T00:36:29.281Z,71.79
2018-06-08T00:38:56.179Z,72.77
2018-06-08T00:41:23.071Z,73.18
2018-06-08T00:43:49.954Z,72.37
2018-06-08T00:46:16.860Z,72.65
2018-06-08T00:48:43.755Z,73.43
2018-06-08T00:51:10.651Z,74.37
2018-06-08T00:53:37.524Z,74.60
2018-06-08T00:56:04.943Z,73.74
2018-06-08T00:58:31.836Z,75.17
2018-06-08T01:00:58.717Z,75.80
2018-06-08T01:03:25.604Z,76.06
2018-06-08T01:05:52.501Z,76.49
2018-06-08T01:08:19.407Z,76.86
2018-06-08T01:10:46.288Z,76.90
2018-06-08T01:13:13.180Z,76.98
2018-06-08T01:15:40.832Z,76.33
2018-06-08T01:18:07.844Z,76.38
2018-06-08T01:20:34.748Z,76.15
2018-06-08T01:23:01.674Z,77.47
2018-06-08T01:25:28.579Z,76.80
2018-06-08T01:27:55.467Z,75.43
2018-06-08T01:30:22.373Z,76.14
2018-06-08T01:32:49.264Z,78.76
2018-06-08T01:35:16.152Z,79.23
2018-06-08T01:37:43.067Z,79.43
2018-06-08T01:40:09.953Z,79.97
2018-06-08T01:42:36.836Z,79.65
2018-06-08T01:45:03.766Z,79.65
2018-06-08T01:47:30.653Z,80.17
2018-06-08T01:49:57.532Z,77.73
2018-06-08T01:52:24.416Z,77.45
2018-06-08T01:54:51.303Z,78.82
2018-06-08T01:57:18.188Z,81.18
2018-06-08T01:59:45.068Z,81.33
2018-06-08T02:02:11.967Z,80.36
2018-06-08T02:04:38.841Z,81.55
2018-06-08T02:07:05.740Z,83.15
2018-06-08T02:09:32.943Z,83.58
2018-06-08T02:11:59.887Z,84.16
2018-06-08T02:14:26.752Z,84.29
2018-06-08T02:16:53.645Z,81.14
2018-06-08T02:19:21.024Z,81.97
2018-06-08T02:21:47.914Z,84.39
2018-06-08T02:24:14.796Z,84.99
2018-06-08T02:26:41.688Z,82.56
2018-06-08T02:29:08.564Z,84.54
2018-06-08T02:31:35.461Z,85.82
2018-06-08T02:34:02.353Z,86.31
2018-06-08T02:36:29.264Z,86.59
2018-06-08T02:38:56.133Z,86.91
2018-06-08T02:41:23.064Z,87.27
2018-06-08T02:43:49.961Z,87.74
2018-06-08T02:46:16.870Z,85.46
2018-06-08T02:48:43.916Z,87.36
2018-06-08T02:51:10.816Z,87.55
2018-06-08T02:53:37.745Z,87.90
2018-06-08T02:56:04.676Z,87.60
2018-06-08T02:58:31.581Z,85.68
2018-06-08T03:00:58.487Z,83.40
2018-06-08T03:03:25.390Z,86.89
2018-06-08T03:05:52.308Z,88.60
2018-06-08T03:08:19.209Z,88.64
2018-06-08T03:10:46.084Z,85.78
2018-06-08T03:13:12.986Z,83.93
2018-06-08T03:15:39.885Z,88.36
2018-06-08T03:18:06.764Z,88.62
2018-06-08T03:20:33.659Z,88.05
2018-06-08T03:23:00.561Z,88.98
2018-06-08T03:25:27.452Z,89.60
2018-06-08T03:27:54.348Z,90.24
2018-06-08T03:30:21.232Z,90.96
2018-06-08T03:32:48.151Z,91.59
2018-06-08T03:35:15.061Z,91.67
2018-06-08T03:37:41.965Z,92.88
2018-06-08T03:40:08.872Z,92.49
2018-06-08T03:42:35.776Z,92.72
2018-06-08T03:45:02.723Z,92.69
2018-06-08T03:47:29.630Z,92.91
2018-06-08T03:49:56.524Z,92.75
2018-06-08T03:52:23.433Z,93.14
2018-06-08T03:54:50.307Z,93.34
2018-06-08T03:57:17.196Z,93.53
2018-06-08T03:59:44.092Z,93.23
2018-06-08T04:02:10.983Z,93.04
2018-06-08T04:04:37.877Z,92.90
2018-06-08T04:07:04.776Z,92.92
2018-06-08T04:09:31.665Z,90.66
2018-06-08T04:11:58.565Z,90.71
2018-06-08T04:14:25.444Z,91.40
2018-06-08T04:16:52.340Z,91.56
2018-06-08T04:19:19.224Z,91.14
2018-06-08T04:21:46.140Z,91.72
2018-06-08T04:24:13.036Z,91.61
2018-06-08T04:26:39.936Z,91.28
2018-06-08T04:29:06.834Z,90.98
2018-06-08T04:31:33.748Z,90.21
2018-06-08T04:34:00.649Z,90.66
2018-06-08T04:36:27.580Z,90.47
2018-06-08T04:38:54.536Z,90.46
2018-06-08T04:41:21.432Z,90.23
2018-06-08T04:43:48.362Z,90.01
2018-06-08T04:46:15.251Z,89.18
2018-06-08T04:48:42.157Z,89.71
2018-06-08T04:51:09.051Z,89.70
2018-06-08T04:53:35.948Z,89.41
2018-06-08T04:56:02.856Z,89.00
2018-06-08T04:58:29.752Z,88.74
2018-06-08T05:00:56.643Z,88.24
2018-06-08T05:03:23.541Z,88.57
2018-06-08T05:05:50.441Z,88.08
2018-06-08T05:08:17.344Z,87.94
2018-06-08T05:10:44.248Z,87.89
2018-06-08T05:13:11.155Z,87.33
2018-06-08T05:15:38.035Z,87.37
2018-06-08T05:18:04.959Z,86.94
2018-06-08T05:20:31.847Z,86.32
2018-06-08T05:22:58.756Z,85.82
2018-06-08T05:25:25.664Z,85.22
2018-06-08T05:27:52.584Z,84.78
2018-06-08T05:30:21.764Z,83.87
2018-06-08T05:32:48.678Z,82.65
2018-06-08T05:35:15.572Z,80.72
2018-06-08T05:37:42.520Z,79.44
2018-06-08T05:40:09.425Z,78.46
2018-06-08T05:42:36.369Z,77.39
2018-06-08T05:45:03.324Z,77.50
2018-06-08T05:47:30.253Z,75.79
2018-06-08T05:49:57.169Z,75.56
2018-06-08T05:52:24.072Z,74.51
2018-06-08T05:54:51.006Z,74.42
2018-06-08T05:57:17.892Z,73.53
2018-06-08T05:59:44.821Z,73.83
2018-06-08T06:02:11.732Z,73.15
2018-06-08T06:04:38.632Z,72.37
2018-06-08T06:07:05.629Z,71.56
2018-06-08T06:09:32.539Z,71.61
2018-06-08T06:11:59.441Z,70.06
2018-06-08T06:14:26.352Z,70.04
2018-06-08T06:16:53.269Z,69.90
2018-06-08T06:19:20.181Z,68.16
2018-06-08T06:21:47.088Z,67.49
2018-06-08T06:24:13.996Z,67.63
2018-06-08T06:26:40.892Z,65.09
2018-06-08T06:29:07.796Z,63.82
2018-06-08T06:31:34.704Z,62.56
2018-06-08T06:34:01.622Z,62.90
2018-06-08T06:36:28.528Z,63.89
2018-06-08T06:38:55.435Z,62.14
2018-06-08T06:41:22.335Z,61.22
2018-06-08T06:43:49.235Z,61.17
2018-06-08T06:46:16.171Z,61.84
2018-06-08T06:48:43.077Z,60.61
2018-06-08T06:51:09.976Z,58.84
2018-06-08T06:53:36.892Z,59.38
2018-06-08T06:56:03.832Z,57.61
2018-06-08T06:58:30.749Z,57.27
2018-06-08T07:00:57.635Z,56.59
2018-06-08T07:03:24.569Z,55.82
2018-06-08T07:05:51.480Z,56.39
2018-06-08T07:08:18.394Z,56.38
2018-06-08T07:10:45.293Z,55.62
2018-06-08T07:13:12.216Z,55.49
2018-06-08T07:15:39.112Z,55.93
2018-06-08T07:18:06.020Z,54.82
2018-06-08T07:20:32.939Z,55.28
2018-06-08T07:22:59.844Z,54.14
2018-06-08T07:25:26.760Z,53.66
2018-06-08T07:27:53.656Z,51.58
2018-06-08T07:30:20.568Z,50.54
2018-06-08T07:32:47.477Z,50.48
2018-06-08T07:35:14.384Z,50.34
2018-06-08T07:37:41.264Z,50.75
2018-06-08T07:40:08.227Z,51.51
2018-06-08T07:42:35.079Z,51.43
2018-06-08T07:45:01.976Z,49.63
2018-06-08T07:47:28.871Z,49.36
2018-06-08T07:49:55.772Z,48.47
2018-06-08T07:52:22.674Z,50.03
2018-06-08T07:54:49.572Z,50.05
2018-06-08T07:57:16.456Z,49.43
2018-06-08T07:59:43.366Z,50.22
2018-06-08T08:02:10.272Z,48.88
2018-06-08T08:04:37.180Z,47.91
2018-06-08T08:07:04.178Z,48.75
2018-06-08T08:09:31.084Z,48.70
2018-06-08T08:11:57.976Z,46.23
2018-06-08T08:14:24.911Z,46.80
2018-06-08T08:16:51.824Z,47.11
2018-06-08T08:19:18.780Z,47.19
2018-06-08T08:21:45.642Z,48.03
2018-06-08T08:24:12.520Z,46.64
2018-06-08T08:26:39.413Z,46.09
2018-06-08T08:29:06.295Z,44.56
2018-06-08T08:31:33.183Z,46.27
2018-06-08T08:34:00.048Z,45.87
2018-06-08T08:36:26.988Z,46.35
2018-06-08T08:38:53.847Z,46.38
2018-06-08T08:41:20.753Z,47.83
2018-06-08T08:43:47.616Z,45.84
2018-06-08T08:46:14.489Z,44.64
2018-06-08T08:48:41.398Z,43.32
2018-06-08T08:51:08.294Z,44.86
2018-06-08T08:53:35.167Z,41.66
2018-06-08T08:56:02.062Z,42.47
2018-06-08T08:58:28.945Z,40.99
2018-06-08T09:00:55.836Z,42.24
2018-06-08T09:03:22.703Z,40.99
2018-06-08T09:05:49.587Z,41.96
2018-06-08T09:08:16.488Z,40.06
2018-06-08T09:10:43.372Z,42.12
2018-06-08T09:13:10.243Z,44.08
2018-06-08T09:15:37.110Z,44.21
2018-06-08T09:18:04.226Z,44.23
2018-06-08T09:20:31.217Z,44.65
2018-06-08T09:22:58.095Z,43.55
2018-06-08T09:25:24.984Z,44.52
2018-06-08T09:27:51.868Z,43.20
2018-06-08T09:30:18.763Z,42.95
2018-06-08T09:32:45.640Z,42.99
2018-06-08T09:35:13.604Z,42.78
2018-06-08T09:37:40.482Z,39.49
2018-06-08T09:40:07.356Z,41.36
2018-06-08T09:42:34.255Z,42.17
2018-06-08T09:45:01.141Z,41.99
2018-06-08T09:47:28.048Z,43.35
2018-06-08T09:49:54.958Z,42.36
2018-06-08T09:52:21.857Z,41.70
2018-06-08T09:54:48.791Z,42.01
2018-06-08T09:57:15.667Z,41.80
2018-06-08T09:59:42.568Z,40.76
2018-06-08T10:02:09.475Z,41.57
2018-06-08T10:04:37.032Z,40.08
2018-06-08T10:07:03.963Z,40.09
2018-06-08T10:09:30.849Z,41.05
2018-06-08T10:11:57.812Z,40.89
2018-06-08T10:14:24.712Z,39.10
2018-06-08T10:16:51.613Z,41.33
2018-06-08T10:19:18.560Z,42.68
2018-06-08T10:21:45.477Z,42.55
2018-06-08T10:24:12.404Z,42.40
2018-06-08T10:26:39.296Z,42.00
2018-06-08T10:29:06.229Z,40.97
2018-06-08T10:31:33.107Z,41.00
2018-06-08T10:34:00.023Z,41.04
2018-06-08T10:36:27.779Z,39.88
2018-06-08T10:38:54.708Z,40.79
2018-06-08T10:41:21.617Z,38.46
2018-06-08T10:43:48.520Z,40.40
2018-06-08T10:46:15.412Z,40.71
2018-06-08T10:48:42.320Z,40.96
2018-06-08T10:51:09.209Z,39.50
2018-06-08T10:53:36.116Z,40.11
2018-06-08T10:56:03.116Z,41.62
2018-06-08T10:58:30.229Z,40.55
2018-06-08T11:00:57.141Z,40.24
2018-06-08T11:03:24.089Z,41.08
2018-06-08T11:05:51.308Z,40.48
2018-06-08T11:08:18.556Z,40.75
2018-06-08T11:10:45.451Z,39.66
2018-06-08T11:13:12.475Z,40.07
2018-06-08T11:15:39.360Z,40.90
2018-06-08T11:18:06.273Z,41.33
2018-06-08T11:20:33.156Z,37.91
2018-06-08T11:23:00.070Z,39.61
2018-06-08T11:25:27.011Z,39.22
2018-06-08T11:27:53.925Z,39.03
2018-06-08T11:30:20.816Z,38.16
2018-06-08T11:32:47.708Z,37.90
2018-06-08T11:35:14.612Z,38.53
2018-06-08T11:37:41.485Z,38.14
2018-06-08T11:40:08.376Z,38.22
2018-06-08T11:42:35.273Z,36.24
2018-06-08T11:45:02.206Z,36.46
2018-06-08T11:47:29.109Z,38.73
2018-06-08T11:49:56.020Z,36.07
2018-06-08T11:52:22.917Z,36.84
2018-06-08T11:54:49.829Z,37.07
2018-06-08T11:57:16.713Z,36.84
2018-06-08T11:59:43.619Z,37.80
2018-06-08T12:02:10.512Z,37.61
2018-06-08T12:04:37.432Z,36.61
2018-06-08T12:07:04.351Z,35.62
2018-06-08T12:09:31.270Z,37.55
2018-06-08T12:11:58.148Z,36.71
2018-06-08T12:14:25.056Z,35.04
2018-06-08T12:16:51.963Z,35.85
2018-06-08T12:19:18.881Z,35.59
2018-06-08T12:21:45.781Z,36.72
2018-06-08T12:24:12.674Z,36.83
2018-06-08T12:26:39.557Z,36.16
2018-06-08T12:29:06.429Z,35.12
2018-06-08T12:31:33.320Z,34.60
2018-06-08T12:34:00.196Z,36.39
2018-06-08T12:36:27.095Z,36.81
2018-06-08T12:38:53.972Z,36.78
2018-06-08T12:41:20.868Z,36.57
2018-06-08T12:43:47.756Z,36.21
2018-06-08T12:46:14.648Z,37.17
2018-06-08T12:48:41.533Z,37.93
2018-06-08T12:51:08.597Z,37.20
2018-06-08T12:53:35.480Z,35.44
2018-06-08T12:56:02.392Z,36.48
2018-06-08T12:58:29.257Z,36.28
2018-06-08T13:00:56.135Z,37.61
2018-06-08T13:03:23.017Z,36.65
2018-06-08T13:05:49.897Z,38.59
2018-06-08T13:08:16.804Z,37.27
2018-06-08T13:10:43.719Z,37.24
2018-06-08T13:13:10.599Z,37.05
2018-06-08T13:15:37.502Z,36.80
2018-06-08T13:18:04.533Z,36.53
2018-06-08T13:20:31.444Z,36.08
2018-06-08T13:22:58.341Z,37.71
2018-06-08T13:25:25.240Z,38.65
2018-06-08T13:27:52.148Z,37.45
2018-06-08T13:30:19.945Z,36.90
2018-06-08T13:32:46.843Z,37.58
2018-06-08T13:35:13.784Z,36.46
2018-06-08T13:37:40.693Z,36.65
2018-06-08T13:40:07.589Z,37.45
2018-06-08T13:42:34.564Z,38.60
2018-06-08T13:45:01.460Z,37.32
2018-06-08T13:47:28.413Z,37.08
2018-06-08T13:49:55.307Z,37.05
2018-06-08T13:52:22.196Z,37.82
2018-06-08T13:54:49.097Z,38.38
2018-06-08T13:57:16.025Z,38.50
2018-06-08T13:59:42.911Z,39.11
2018-06-08T14:02:09.801Z,40.56
2018-06-08T14:04:36.700Z,39.45
2018-06-08T14:07:03.687Z,40.04
2018-06-08T14:09:30.583Z,41.09
2018-06-08T14:11:57.523Z,40.61
2018-06-08T14:14:24.394Z,39.28
2018-06-08T14:16:51.312Z,39.44
2018-06-08T14:19:18.210Z,40.38
2018-06-08T14:21:45.103Z,39.53
2018-06-08T14:24:12.008Z,40.19
2018-06-08T14:26:38.887Z,39.93
2018-06-08T14:29:05.765Z,40.49
2018-06-08T14:31:32.664Z,41.01
2018-06-08T14:33:59.566Z,40.75
2018-06-08T14:36:26.478Z,41.43
2018-06-08T14:38:53.361Z,42.76
2018-06-08T14:41:20.269Z,41.96
2018-06-08T14:43:47.142Z,41.69
2018-06-08T14:46:14.029Z,42.16
2018-06-08T14:48:40.904Z,43.85
2018-06-08T14:51:07.802Z,43.03
2018-06-08T14:53:34.687Z,42.22
2018-06-08T14:56:01.557Z,43.31
2018-06-08T14:58:28.436Z,44.09
2018-06-08T15:00:55.311Z,44.47
2018-06-08T15:03:22.188Z,44.45
2018-06-08T15:05:49.054Z,44.28
2018-06-08T15:08:15.917Z,45.21
2018-06-08T15:10:42.788Z,45.26
2018-06-08T15:13:09.663Z,45.14
2018-06-08T15:15:36.556Z,45.58
2018-06-08T15:18:03.465Z,45.24
2018-06-08T15:20:30.348Z,45.35
2018-06-08T15:22:57.247Z,44.34
2018-06-08T15:25:24.133Z,44.56
2018-06-08T15:27:51.032Z,44.86
2018-06-08T15:30:17.919Z,44.88
2018-06-08T15:32:44.816Z,45.40
2018-06-08T15:35:11.708Z,45.39
2018-06-08T15:37:38.647Z,45.49
2018-06-08T15:40:05.570Z,44.96
2018-06-08T15:42:32.469Z,44.64
2018-06-08T15:44:59.368Z,44.27
2018-06-08T15:47:26.289Z,44.29
2018-06-08T15:49:53.182Z,44.67
2018-06-08T15:52:20.093Z,44.21
2018-06-08T15:54:46.998Z,44.83
2018-06-08T15:57:13.893Z,43.20
2018-06-08T15:59:40.793Z,42.77
2018-06-08T16:02:07.689Z,43.18
2018-06-08T16:04:34.607Z,43.63
2018-06-08T16:07:01.504Z,43.38
2018-06-08T16:09:28.415Z,44.77
2018-06-08T16:11:55.301Z,43.03
2018-06-08T16:14:22.223Z,44.21
2018-06-08T16:16:49.138Z,45.00
2018-06-08T16:19:16.052Z,46.68
2018-06-08T16:21:42.938Z,46.54
2018-06-08T16:24:09.823Z,45.30
2018-06-08T16:26:36.702Z,45.35
2018-06-08T16:29:03.612Z,45.16
2018-06-08T16:31:30.497Z,45.08
2018-06-08T16:33:57.383Z,44.70
2018-06-08T16:36:24.269Z,45.67
2018-06-08T16:38:51.152Z,45.57
2018-06-08T16:41:18.021Z,45.83
2018-06-08T16:43:44.918Z,46.31
2018-06-08T16:46:11.800Z,47.26
2018-06-08T16:48:38.686Z,46.79
2018-06-08T16:51:05.900Z,46.70
2018-06-08T16:53:32.787Z,46.40
2018-06-08T16:55:59.657Z,46.38
2018-06-08T16:58:26.532Z,46.95
2018-06-08T17:00:53.429Z,46.34
2018-06-08T17:03:20.322Z,46.43
2018-06-08T17:05:47.214Z,47.20
2018-06-08T17:08:14.096Z,47.25
2018-06-08T17:10:40.997Z,47.02
2018-06-08T17:13:08.108Z,47.65
2018-06-08T17:15:35.001Z,46.79
2018-06-08T17:18:01.893Z,47.01
2018-06-08T17:20:28.780Z,47.24
2018-06-08T17:22:55.694Z,48.92
2018-06-08T17:25:22.617Z,49.54
2018-06-08T17:27:49.516Z,51.07
2018-06-08T17:30:16.433Z,50.81
2018-06-08T17:32:43.316Z,52.14
2018-06-08T17:35:10.212Z,51.90
2018-06-08T17:37:37.112Z,52.39
2018-06-08T17:40:04.324Z,52.89
2018-06-08T17:42:31.221Z,53.00
2018-06-08T17:44:58.139Z,52.70
2018-06-08T17:47:25.053Z,52.34
2018-06-08T17:52:26.100Z,52.69
2018-06-08T17:54:53.004Z,53.19
2018-06-08T17:57:19.985Z,52.62
2018-06-08T17:59:46.812Z,52.78
2018-06-08T18:02:13.716Z,53.64
2018-06-08T18:04:40.620Z,52.97
2018-06-08T18:07:07.526Z,53.66
2018-06-08T18:09:34.431Z,52.96
2018-06-08T18:12:01.324Z,52.59
2018-06-08T18:14:28.232Z,51.98
2018-06-08T18:16:55.148Z,52.23
2018-06-08T18:19:22.061Z,52.76
2018-06-08T18:21:48.968Z,54.35
2018-06-08T18:24:15.846Z,54.73
2018-06-08T18:26:42.732Z,54.37
2018-06-08T18:29:09.603Z,54.21
2018-06-08T18:31:36.488Z,55.10
2018-06-08T18:34:03.448Z,54.61
2018-06-08T18:36:30.341Z,55.58
2018-06-08T18:38:57.223Z,55.58
2018-06-08T18:41:24.144Z,55.99
2018-06-08T18:43:51.012Z,56.08
2018-06-08T18:46:17.887Z,55.39
2018-06-08T18:48:44.756Z,55.08
2018-06-08T18:51:11.651Z,55.04
2018-06-08T18:53:38.512Z,55.25
2018-06-08T18:56:05.416Z,56.11
2018-06-08T18:58:32.300Z,55.62
2018-06-08T19:00:59.178Z,56.79
2018-06-08T19:03:26.065Z,56.66
2018-06-08T19:05:52.952Z,57.20
2018-06-08T19:08:19.834Z,57.59
2018-06-08T19:10:46.728Z,57.74
2018-06-08T19:13:13.625Z,58.81
2018-06-08T19:15:40.512Z,59.28
2018-06-08T19:18:07.392Z,59.42
2018-06-08T19:20:34.263Z,60.11
2018-06-08T19:23:01.174Z,59.62
2018-06-08T19:25:28.087Z,60.01
2018-06-08T19:27:54.996Z,60.72
2018-06-08T19:30:21.912Z,60.82
2018-06-08T19:32:48.817Z,60.79
2018-06-08T19:35:15.724Z,60.34
2018-06-08T19:37:42.630Z,61.03
2018-06-08T19:40:09.532Z,60.88
2018-06-08T19:42:36.431Z,60.88
2018-06-08T19:45:03.780Z,61.81
2018-06-08T19:47:30.688Z,61.78
2018-06-08T19:49:57.572Z,61.96
2018-06-08T19:52:24.477Z,61.87
2018-06-08T19:54:51.388Z,62.73
2018-06-08T19:57:18.370Z,62.46
2018-06-08T19:59:45.289Z,62.88
2018-06-08T20:02:12.260Z,63.00
2018-06-08T20:04:39.171Z,63.06
2018-06-08T20:07:06.084Z,63.43
2018-06-08T20:09:32.999Z,63.74
2018-06-08T20:11:59.904Z,63.81
2018-06-08T20:14:26.801Z,64.57
2018-06-08T20:16:53.700Z,65.12
2018-06-08T20:19:21.391Z,65.01
2018-06-08T20:21:48.324Z,66.28
2018-06-08T20:24:15.230Z,66.70
2018-06-08T20:26:42.136Z,66.73
2018-06-08T20:29:09.055Z,67.11
2018-06-08T20:31:35.975Z,67.18
2018-06-08T20:34:02.856Z,67.69
2018-06-08T20:36:29.753Z,67.36
2018-06-08T20:38:56.636Z,67.56
2018-06-08T20:41:23.544Z,67.95
2018-06-08T20:43:50.428Z,67.45
2018-06-08T20:46:17.331Z,67.58
2018-06-08T20:48:44.210Z,67.87
2018-06-08T20:51:11.110Z,67.81
2018-06-08T20:53:38.000Z,67.64
2018-06-08T20:56:04.925Z,67.32
2018-06-08T20:58:31.815Z,67.58
2018-06-08T21:00:58.708Z,67.80
2018-06-08T21:03:25.640Z,67.23
2018-06-08T21:05:52.525Z,67.77
2018-06-08T21:08:19.421Z,67.32
2018-06-08T21:10:46.321Z,67.28
2018-06-08T21:13:13.225Z,68.00
2018-06-08T21:15:40.120Z,68.24
2018-06-08T21:18:07.007Z,67.56
2018-06-08T21:20:33.888Z,68.43
2018-06-08T21:23:00.799Z,68.55
2018-06-08T21:25:27.689Z,68.75
2018-06-08T21:27:54.595Z,68.80
2018-06-08T21:30:21.487Z,69.41
2018-06-08T21:32:48.390Z,69.35
2018-06-08T21:35:15.307Z,69.77
2018-06-08T21:37:42.208Z,69.79
2018-06-08T21:40:09.116Z,70.28
2018-06-08T21:42:36.012Z,70.70
2018-06-08T21:45:02.939Z,70.50
2018-06-08T21:47:29.835Z,71.28
2018-06-08T21:49:56.735Z,71.63
2018-06-08T21:52:23.646Z,71.56
2018-06-08T21:54:50.545Z,71.58
2018-06-08T21:57:17.474Z,71.88
2018-06-08T21:59:44.380Z,72.20
2018-06-08T22:02:11.315Z,71.88
2018-06-08T22:04:38.228Z,71.45
2018-06-08T22:07:05.182Z,71.89
2018-06-08T22:09:32.093Z,72.13
2018-06-08T22:11:59.000Z,72.45
2018-06-08T22:14:25.984Z,73.08
2018-06-08T22:16:52.828Z,73.18
2018-06-08T22:19:19.744Z,73.30
2018-06-08T22:21:46.664Z,73.18
2018-06-08T22:24:13.568Z,73.20
2018-06-08T22:26:40.463Z,73.55
2018-06-08T22:29:07.397Z,73.67
2018-06-08T22:31:34.279Z,73.91
2018-06-08T22:34:01.180Z,73.86
2018-06-08T22:36:28.073Z,73.56
2018-06-08T22:38:54.998Z,74.47
2018-06-08T22:41:21.911Z,74.00
2018-06-08T22:43:48.812Z,74.69
2018-06-08T22:46:15.732Z,74.39
2018-06-08T22:48:42.652Z,74.70
2018-06-08T22:51:09.555Z,74.71
2018-06-08T22:53:36.461Z,75.23
2018-06-08T22:56:03.380Z,75.01
2018-06-08T22:58:30.287Z,75.31
2018-06-08T23:00:57.270Z,75.84
2018-06-08T23:03:24.111Z,75.74
2018-06-08T23:05:51.032Z,75.68
2018-06-08T23:08:17.965Z,75.45
2018-06-08T23:10:44.870Z,75.77
2018-06-08T23:13:11.787Z,75.86
2018-06-08T23:15:38.679Z,76.33
2018-06-08T23:18:05.592Z,77.01
2018-06-08T23:20:32.492Z,77.02
2018-06-08T23:22:59.384Z,76.83
2018-06-08T23:25:26.280Z,77.19
2018-06-08T23:27:53.203Z,77.35
2018-06-08T23:30:20.089Z,76.80
2018-06-08T23:32:46.973Z,77.98
2018-06-08T23:35:13.863Z,77.90
2018-06-08T23:37:40.752Z,78.12
2018-06-08T23:40:07.653Z,78.40
2018-06-08T23:42:34.560Z,78.57
2018-06-08T23:45:01.466Z,78.54
2018-06-08T23:47:28.365Z,78.29
2018-06-08T23:49:55.256Z,77.63
2018-06-08T23:52:22.152Z,77.36
2018-06-08T23:54:49.047Z,77.76
2018-06-08T23:57:15.912Z,77.82
2018-06-08T23:59:43.316Z,77.65
